Terminal Aerodrome Forecast
Issued by NWS Burlington, VT

Home | Current Version | Previous Version | Text Only | Print | Product List | Glossary On
Versions: 1 2 3 4 5 6 7 8 9 10 11
562
FTUS41 KBTV 212320
TAFBTV
TAF
KBTV 212320Z 2200/2224 17012G20KT P6SM BKN150
     FM220200 17010KT P6SM VCSH OVC090
     FM220400 18010KT P6SM OVC060
     FM221000 18007KT P6SM BKN030
     FM221500 18006KT P6SM BKN060=

USA.gov is the U.S. government's official web portal to all federal, state and local government web resources and services.